createdAt,value
2022-08-22T00:00:20.865Z,22.81
2022-08-22T00:02:46.876Z,24.83
2022-08-22T00:02:59.281Z,23.43
2022-08-22T00:06:02.340Z,22.74
2022-08-22T00:08:43.106Z,22.58
2022-08-22T00:11:26.017Z,22.54
2022-08-22T00:14:02.379Z,22.60
2022-08-22T00:16:42.721Z,22.59
2022-08-22T00:19:25.673Z,22.51
2022-08-22T00:22:03.263Z,22.39
2022-08-22T00:24:41.931Z,22.61
2022-08-22T00:27:21.168Z,22.72
2022-08-22T00:29:56.032Z,22.64
2022-08-22T00:32:33.797Z,22.73
2022-08-22T00:35:09.520Z,22.65
2022-08-22T00:37:45.551Z,22.60
2022-08-22T00:40:31.326Z,22.64
2022-08-22T00:43:27.099Z,22.70
2022-08-22T00:46:25.788Z,22.47
2022-08-22T00:49:18.244Z,22.37
2022-08-22T00:52:26.879Z,22.47
2022-08-22T00:55:18.795Z,22.52
2022-08-22T00:58:07.721Z,22.56
2022-08-22T01:00:45.187Z,22.59
2022-08-22T01:03:52.838Z,22.63
2022-08-22T01:06:34.252Z,22.65
2022-08-22T01:09:17.894Z,22.60
2022-08-22T01:12:17.206Z,22.59
2022-08-22T01:14:55.093Z,22.38
2022-08-22T01:17:56.238Z,22.20
2022-08-22T01:20:59.705Z,22.22
2022-08-22T01:24:02.854Z,22.25
2022-08-22T01:27:30.048Z,22.17
2022-08-22T01:30:19.869Z,22.16
2022-08-22T01:33:25.290Z,22.16
2022-08-22T01:36:39.914Z,22.16
2022-08-22T01:39:35.782Z,22.14
2022-08-22T01:42:42.401Z,22.11
2022-08-22T01:45:36.648Z,22.06
2022-08-22T01:48:14.196Z,21.77
2022-08-22T01:50:53.496Z,21.60
2022-08-22T01:53:32.125Z,21.61
2022-08-22T01:56:11.521Z,21.52
2022-08-22T01:58:56.492Z,21.46
2022-08-22T02:01:38.227Z,21.41
2022-08-22T02:04:19.159Z,21.33
2022-08-22T02:07:02.512Z,21.38
2022-08-22T02:09:43.623Z,21.25
2022-08-22T02:12:34.242Z,21.28
2022-08-22T02:15:18.363Z,21.29
2022-08-22T02:18:21.025Z,21.40
2022-08-22T02:21:10.589Z,21.44
2022-08-22T02:23:52.272Z,21.42
2022-08-22T02:26:39.251Z,21.37
2022-08-22T02:29:16.517Z,21.34
2022-08-22T02:31:54.598Z,21.15
2022-08-22T02:34:38.470Z,21.04
2022-08-22T02:37:17.149Z,21.14
2022-08-22T02:39:57.352Z,21.22
2022-08-22T02:42:38.670Z,21.20
2022-08-22T02:45:23.292Z,21.07
2022-08-22T02:48:02.489Z,21.17
2022-08-22T02:50:42.917Z,21.26
2022-08-22T02:53:19.033Z,21.39
2022-08-22T02:56:00.579Z,21.35
2022-08-22T02:58:41.002Z,21.34
2022-08-22T03:01:25.609Z,21.31
2022-08-22T03:04:28.798Z,21.22
2022-08-22T03:07:17.947Z,21.04
2022-08-22T03:09:58.041Z,21.07
2022-08-22T03:12:39.611Z,21.04
2022-08-22T03:15:21.138Z,21.19
2022-08-22T03:17:57.709Z,21.03
2022-08-22T03:20:47.020Z,20.99
2022-08-22T03:23:34.904Z,20.96
2022-08-22T03:26:14.584Z,20.87
2022-08-22T03:28:58.984Z,20.86
2022-08-22T03:31:36.827Z,20.97
2022-08-22T03:34:28.511Z,21.00
2022-08-22T03:37:16.457Z,20.92
2022-08-22T03:39:59.405Z,20.98
2022-08-22T03:43:00.420Z,20.96
2022-08-22T03:45:55.785Z,20.93
2022-08-22T03:48:52.693Z,20.98
2022-08-22T03:51:49.464Z,20.91
2022-08-22T03:54:47.757Z,20.72
2022-08-22T03:58:00.028Z,20.68
2022-08-22T04:00:55.917Z,20.57
2022-08-22T04:04:00.181Z,20.59
2022-08-22T04:06:56.638Z,20.60
2022-08-22T04:09:56.846Z,20.33
2022-08-22T04:12:48.905Z,20.33
2022-08-22T04:15:33.793Z,20.32
2022-08-22T04:18:48.050Z,20.40
2022-08-22T04:21:36.805Z,20.45
2022-08-22T04:24:40.262Z,20.37
2022-08-22T04:27:22.950Z,20.35
2022-08-22T04:30:00.445Z,20.48
2022-08-22T04:32:38.845Z,20.34
2022-08-22T04:35:14.301Z,20.25
2022-08-22T04:37:51.265Z,20.24
2022-08-22T04:40:28.704Z,20.27
2022-08-22T04:43:06.440Z,20.22
2022-08-22T04:45:42.916Z,20.26
2022-08-22T04:48:23.026Z,20.32
2022-08-22T04:50:59.810Z,20.31
2022-08-22T04:53:49.034Z,20.37
2022-08-22T04:56:26.713Z,20.60
2022-08-22T04:59:02.949Z,21.19
2022-08-22T05:01:47.794Z,21.66
2022-08-22T05:04:20.583Z,22.11
2022-08-22T05:06:55.192Z,22.32
2022-08-22T05:09:30.820Z,22.48
2022-08-22T05:12:07.676Z,22.67
2022-08-22T05:14:42.673Z,22.86
2022-08-22T05:17:23.691Z,23.21
2022-08-22T05:19:58.456Z,23.42
2022-08-22T05:22:34.539Z,23.68
2022-08-22T05:25:11.353Z,23.67
2022-08-22T05:27:49.724Z,23.61
2022-08-22T05:30:29.524Z,23.41
2022-08-22T05:33:07.876Z,23.07
2022-08-22T05:35:48.585Z,22.89
2022-08-22T05:38:32.141Z,22.85
2022-08-22T05:41:08.194Z,22.89
2022-08-22T05:43:44.827Z,22.66
2022-08-22T05:46:26.895Z,22.61
2022-08-22T05:49:02.741Z,22.74
2022-08-22T05:51:45.785Z,22.98
2022-08-22T05:54:20.492Z,23.16
2022-08-22T05:56:56.155Z,23.33
2022-08-22T05:59:31.339Z,23.55
2022-08-22T06:02:08.660Z,23.69
2022-08-22T06:04:47.839Z,23.89
2022-08-22T06:07:25.605Z,24.00
2022-08-22T06:10:14.841Z,24.23
2022-08-22T06:12:55.480Z,24.26
2022-08-22T06:15:36.440Z,24.20
2022-08-22T06:18:13.420Z,24.18
2022-08-22T06:20:50.002Z,24.20
2022-08-22T06:23:26.408Z,24.18
2022-08-22T06:26:02.005Z,24.18
2022-08-22T06:28:55.178Z,24.25
2022-08-22T06:31:31.530Z,24.17
2022-08-22T06:34:13.096Z,24.16
2022-08-22T06:36:49.886Z,24.36
2022-08-22T06:39:25.009Z,24.47
2022-08-22T06:42:01.593Z,24.65
2022-08-22T06:44:36.555Z,24.71
2022-08-22T06:47:10.653Z,24.65
2022-08-22T06:49:44.571Z,24.62
2022-08-22T06:52:23.750Z,24.64
2022-08-22T06:55:01.918Z,24.58
2022-08-22T06:57:38.766Z,24.74
2022-08-22T07:00:15.319Z,24.92
2022-08-22T07:02:50.762Z,25.05
2022-08-22T07:05:28.312Z,25.24
2022-08-22T07:08:00.339Z,25.39
2022-08-22T07:10:32.154Z,25.40
2022-08-22T07:13:04.239Z,25.40
2022-08-22T07:15:38.816Z,25.41
2022-08-22T07:18:18.444Z,25.49
2022-08-22T07:20:55.022Z,25.37
2022-08-22T07:23:35.024Z,25.45
2022-08-22T07:26:24.327Z,25.47
2022-08-22T07:29:00.829Z,25.67
2022-08-22T07:31:39.489Z,25.69
2022-08-22T07:34:24.889Z,25.67
2022-08-22T07:37:03.675Z,25.76
2022-08-22T07:39:43.185Z,25.87
2022-08-22T07:42:19.542Z,25.90
2022-08-22T07:45:08.499Z,25.98
2022-08-22T07:47:59.565Z,25.91
2022-08-22T07:50:33.997Z,25.90
2022-08-22T07:53:15.641Z,25.86
2022-08-22T07:55:49.645Z,25.63
2022-08-22T07:58:20.922Z,25.71
2022-08-22T08:00:53.218Z,26.01
2022-08-22T08:03:28.292Z,26.21
2022-08-22T08:06:02.138Z,26.14
2022-08-22T08:08:39.640Z,26.08
2022-08-22T08:11:13.824Z,25.92
2022-08-22T08:13:47.397Z,25.80
2022-08-22T08:16:24.982Z,25.81
2022-08-22T08:19:00.094Z,25.85
2022-08-22T08:21:38.017Z,25.98
2022-08-22T08:24:17.350Z,26.03
2022-08-22T08:27:06.883Z,26.11
2022-08-22T08:29:38.947Z,26.05
2022-08-22T08:32:14.185Z,26.10
2022-08-22T08:34:46.818Z,26.00
2022-08-22T08:37:23.842Z,26.04
2022-08-22T08:39:58.636Z,26.03
2022-08-22T08:43:10.957Z,26.02
2022-08-22T08:45:59.383Z,25.96
2022-08-22T08:49:17.021Z,25.97
2022-08-22T08:52:24.448Z,26.16
2022-08-22T08:55:19.620Z,26.27
2022-08-22T08:58:06.967Z,26.42
2022-08-22T09:00:57.453Z,26.54
2022-08-22T09:03:57.012Z,26.56
2022-08-22T09:06:59.256Z,26.56
2022-08-22T09:09:52.336Z,26.71
2022-08-22T09:13:12.258Z,26.63
2022-08-22T09:16:09.196Z,26.77
2022-08-22T09:19:03.205Z,26.84
2022-08-22T09:22:01.423Z,26.73
2022-08-22T09:25:06.518Z,26.90
2022-08-22T09:27:38.993Z,26.96
2022-08-22T09:30:15.684Z,26.99
2022-08-22T09:32:59.481Z,26.78
2022-08-22T09:35:41.851Z,26.58
2022-08-22T09:38:29.722Z,26.64
2022-08-22T09:41:10.354Z,26.44
2022-08-22T09:43:48.720Z,26.33
2022-08-22T09:46:31.477Z,26.16
2022-08-22T09:49:14.844Z,26.27
2022-08-22T09:52:03.668Z,26.44
2022-08-22T09:54:42.147Z,26.37
2022-08-22T09:57:35.737Z,26.40
2022-08-22T10:00:22.466Z,26.31
2022-08-22T10:03:19.056Z,26.27
2022-08-22T10:06:00.763Z,26.19
2022-08-22T10:08:52.373Z,26.26
2022-08-22T10:11:29.513Z,26.33
2022-08-22T10:14:10.128Z,26.41
2022-08-22T10:17:01.032Z,26.37
2022-08-22T10:19:38.749Z,26.40
2022-08-22T10:22:39.547Z,26.40
2022-08-22T10:25:33.388Z,26.28
2022-08-22T10:28:32.277Z,26.38
2022-08-22T10:31:24.057Z,26.50
2022-08-22T10:34:05.414Z,26.70
2022-08-22T10:36:50.412Z,26.92
2022-08-22T10:39:27.109Z,27.01
2022-08-22T10:42:28.134Z,26.99
2022-08-22T10:45:23.598Z,27.07
2022-08-22T10:48:37.263Z,27.08
2022-08-22T10:51:21.642Z,27.09
2022-08-22T10:54:06.751Z,27.16
2022-08-22T10:56:45.090Z,27.20
2022-08-22T10:59:38.326Z,27.18
2022-08-22T11:02:25.125Z,27.16
2022-08-22T11:05:16.263Z,27.27
2022-08-22T11:07:50.667Z,27.12
2022-08-22T11:10:36.357Z,27.02
2022-08-22T11:13:18.293Z,27.05
2022-08-22T11:16:04.410Z,27.26
2022-08-22T11:19:04.880Z,27.39
2022-08-22T11:21:59.605Z,27.38
2022-08-22T11:25:15.504Z,27.27
2022-08-22T11:28:28.863Z,27.17
2022-08-22T11:31:11.263Z,27.12
2022-08-22T11:33:53.391Z,27.09
2022-08-22T11:36:37.441Z,27.21
2022-08-22T11:39:27.897Z,27.25
2022-08-22T11:42:08.419Z,27.41
2022-08-22T11:44:50.475Z,27.62
2022-08-22T11:47:26.808Z,27.74
2022-08-22T11:50:13.505Z,27.74
2022-08-22T11:53:14.716Z,27.75
2022-08-22T11:55:55.918Z,27.77
2022-08-22T11:58:34.654Z,27.82
2022-08-22T12:01:17.152Z,27.77
2022-08-22T12:04:04.236Z,27.72
2022-08-22T12:06:47.901Z,27.76
2022-08-22T12:09:39.184Z,27.69
2022-08-22T12:12:36.478Z,27.70
2022-08-22T12:15:15.086Z,27.82
2022-08-22T12:18:15.338Z,27.81
2022-08-22T12:21:24.196Z,27.87
2022-08-22T12:24:19.226Z,27.94
2022-08-22T12:27:13.310Z,27.88
2022-08-22T12:30:02.470Z,27.73
2022-08-22T12:33:21.939Z,27.73
2022-08-22T12:36:06.567Z,27.72
2022-08-22T12:39:01.053Z,27.72
2022-08-22T12:42:16.012Z,27.75
2022-08-22T12:45:08.483Z,27.61
2022-08-22T12:47:55.651Z,27.63
2022-08-22T12:50:39.963Z,27.51
2022-08-22T12:53:32.719Z,27.45
2022-08-22T12:56:26.374Z,27.27
2022-08-22T12:59:13.377Z,27.12
2022-08-22T13:01:51.734Z,27.00
2022-08-22T13:04:33.194Z,26.95
2022-08-22T13:07:24.385Z,27.04
2022-08-22T13:09:59.227Z,27.03
2022-08-22T13:12:38.164Z,26.91
2022-08-22T13:15:24.311Z,26.86
2022-08-22T13:18:08.681Z,26.86
2022-08-22T13:20:51.505Z,27.01
2022-08-22T13:23:27.702Z,26.97
2022-08-22T13:26:10.642Z,26.96
2022-08-22T13:29:04.283Z,26.97
2022-08-22T13:31:46.125Z,27.11
2022-08-22T13:34:32.087Z,27.24
2022-08-22T13:37:10.119Z,27.21
2022-08-22T13:39:49.149Z,27.22
2022-08-22T13:42:30.017Z,27.15
2022-08-22T13:45:06.585Z,27.21
2022-08-22T13:47:48.238Z,27.28
2022-08-22T13:50:24.551Z,27.24
2022-08-22T13:53:02.048Z,27.18
2022-08-22T13:55:38.766Z,27.16
2022-08-22T13:58:27.636Z,27.09
2022-08-22T14:01:17.443Z,27.12
2022-08-22T14:03:56.665Z,27.29
2022-08-22T14:06:41.190Z,27.30
2022-08-22T14:09:32.463Z,27.41
2022-08-22T14:12:15.394Z,27.45
2022-08-22T14:14:56.013Z,27.38
2022-08-22T14:17:33.647Z,27.54
2022-08-22T14:20:12.289Z,27.71
2022-08-22T14:22:57.282Z,27.72
2022-08-22T14:25:36.180Z,27.76
2022-08-22T14:28:11.330Z,27.80
2022-08-22T14:31:00.702Z,27.59
2022-08-22T14:33:39.764Z,27.66
2022-08-22T14:36:22.000Z,27.58
2022-08-22T14:38:57.897Z,27.51
2022-08-22T14:41:55.666Z,27.53
2022-08-22T14:44:32.914Z,27.48
2022-08-22T14:47:30.337Z,27.54
2022-08-22T14:50:02.927Z,27.63
2022-08-22T14:52:40.646Z,27.73
2022-08-22T14:55:26.410Z,27.83
2022-08-22T14:58:03.451Z,27.73
2022-08-22T15:00:41.962Z,27.52
2022-08-22T15:03:25.309Z,27.34
2022-08-22T15:06:01.405Z,27.32
2022-08-22T15:08:37.996Z,27.27
2022-08-22T15:11:24.550Z,27.15
2022-08-22T15:14:13.455Z,27.02
2022-08-22T15:16:48.003Z,27.00
2022-08-22T15:19:30.035Z,26.97
2022-08-22T15:22:16.514Z,27.07
2022-08-22T15:24:54.971Z,27.00
2022-08-22T15:27:30.882Z,26.84
2022-08-22T15:30:20.573Z,26.86
2022-08-22T15:32:53.477Z,27.00
2022-08-22T15:35:38.832Z,26.97
2022-08-22T15:38:28.818Z,26.89
2022-08-22T15:41:32.588Z,26.85
2022-08-22T15:44:14.782Z,26.94
2022-08-22T15:47:06.227Z,26.96
2022-08-22T15:49:54.316Z,27.08
2022-08-22T15:52:32.266Z,27.15
2022-08-22T15:55:25.771Z,27.16
2022-08-22T15:58:12.815Z,27.06
2022-08-22T16:01:05.036Z,26.93
2022-08-22T16:04:00.399Z,26.79
2022-08-22T16:06:49.000Z,26.84
2022-08-22T16:09:37.833Z,26.77
2022-08-22T16:12:15.448Z,26.75
2022-08-22T16:14:53.785Z,26.58
2022-08-22T16:17:44.051Z,26.59
2022-08-22T16:20:51.294Z,26.69
2022-08-22T16:23:23.296Z,26.69
2022-08-22T16:26:15.856Z,26.58
2022-08-22T16:29:02.402Z,26.56
2022-08-22T16:31:36.454Z,26.50
2022-08-22T16:34:26.238Z,26.40
2022-08-22T16:37:38.058Z,26.34
2022-08-22T16:40:17.182Z,26.34
2022-08-22T16:43:11.451Z,26.32
2022-08-22T16:45:45.849Z,26.11
2022-08-22T16:48:33.416Z,26.13
2022-08-22T16:51:19.512Z,25.97
2022-08-22T16:54:14.708Z,25.89
2022-08-22T16:57:09.402Z,25.79
2022-08-22T16:59:59.526Z,25.86
2022-08-22T17:03:02.939Z,25.96
2022-08-22T17:05:48.964Z,25.87
2022-08-22T17:08:36.810Z,25.68
2022-08-22T17:11:24.532Z,25.68
2022-08-22T17:14:12.792Z,25.74
2022-08-22T17:17:05.702Z,25.70
2022-08-22T17:19:50.798Z,25.73
2022-08-22T17:22:33.663Z,25.74
2022-08-22T17:25:19.618Z,25.65
2022-08-22T17:28:04.142Z,25.58
2022-08-22T17:30:43.485Z,25.61
2022-08-22T17:33:31.099Z,25.62
2022-08-22T17:36:26.872Z,25.81
2022-08-22T17:39:21.241Z,25.83
2022-08-22T17:42:02.049Z,25.82
2022-08-22T17:44:47.348Z,25.78
2022-08-22T17:47:23.427Z,25.79
2022-08-22T17:50:03.682Z,25.80
2022-08-22T17:52:46.896Z,25.74
2022-08-22T17:55:23.630Z,25.83
2022-08-22T17:57:59.355Z,25.70
2022-08-22T18:00:35.150Z,25.52
2022-08-22T18:03:16.383Z,25.46
2022-08-22T18:05:54.409Z,25.30
2022-08-22T18:09:33.392Z,25.17
2022-08-22T18:11:31.984Z,25.25
2022-08-22T18:14:23.708Z,25.26
2022-08-22T18:16:56.948Z,25.14
2022-08-22T18:19:47.113Z,25.12
2022-08-22T18:22:29.427Z,25.03
2022-08-22T18:25:09.344Z,24.97
2022-08-22T18:27:49.365Z,25.03
2022-08-22T18:30:24.886Z,24.98
2022-08-22T18:33:05.104Z,25.01
2022-08-22T18:35:50.005Z,24.96
2022-08-22T18:38:33.029Z,25.05
2022-08-22T18:41:13.448Z,25.00
2022-08-22T18:43:49.522Z,24.99
2022-08-22T18:46:43.603Z,24.96
2022-08-22T18:49:30.311Z,25.01
2022-08-22T18:52:32.376Z,25.07
2022-08-22T18:55:22.853Z,25.02
2022-08-22T18:58:23.049Z,24.93
2022-08-22T19:01:06.281Z,24.89
2022-08-22T19:04:02.151Z,24.90
2022-08-22T19:07:04.159Z,24.92
2022-08-22T19:10:08.065Z,24.81
2022-08-22T19:12:59.070Z,24.85
2022-08-22T19:15:49.171Z,24.89
2022-08-22T19:18:40.548Z,24.74
2022-08-22T19:21:45.999Z,24.53
2022-08-22T19:24:44.502Z,24.57
2022-08-22T19:27:31.724Z,24.44
2022-08-22T19:30:08.698Z,24.38
2022-08-22T19:33:08.336Z,24.34
2022-08-22T19:35:55.380Z,24.34
2022-08-22T19:38:55.587Z,24.42
2022-08-22T19:41:53.106Z,24.48
2022-08-22T19:44:40.131Z,24.46
2022-08-22T19:47:28.970Z,24.54
2022-08-22T19:50:05.608Z,24.52
2022-08-22T19:52:59.676Z,24.46
2022-08-22T19:55:46.105Z,24.35
2022-08-22T19:58:32.047Z,24.27
2022-08-22T20:01:11.187Z,24.19
2022-08-22T20:03:53.843Z,24.11
2022-08-22T20:06:44.272Z,24.14
2022-08-22T20:09:38.482Z,24.19
2022-08-22T20:12:17.821Z,24.12
2022-08-22T20:14:51.856Z,24.06
2022-08-22T20:18:11.235Z,23.98
2022-08-22T20:20:57.445Z,23.86
2022-08-22T20:23:33.197Z,23.84
2022-08-22T20:26:05.601Z,23.78
2022-08-22T20:28:50.325Z,23.70
2022-08-22T20:31:27.620Z,23.57
2022-08-22T20:34:04.085Z,23.59
2022-08-22T20:36:36.447Z,23.63
2022-08-22T20:39:12.405Z,23.52
2022-08-22T20:41:48.100Z,23.45
2022-08-22T20:44:22.909Z,23.41
2022-08-22T20:46:58.818Z,23.34
2022-08-22T20:49:34.393Z,23.27
2022-08-22T20:52:08.901Z,23.25
2022-08-22T20:54:42.724Z,23.31
2022-08-22T20:57:18.507Z,23.28
2022-08-22T20:59:57.042Z,23.29
2022-08-22T21:02:36.191Z,23.26
2022-08-22T21:05:18.690Z,23.30
2022-08-22T21:08:02.706Z,23.30
2022-08-22T21:10:56.136Z,23.33
2022-08-22T21:13:29.381Z,23.33
2022-08-22T21:16:03.435Z,23.29
2022-08-22T21:18:38.508Z,23.32
2022-08-22T21:21:17.600Z,23.17
2022-08-22T21:23:54.707Z,23.03
2022-08-22T21:26:32.386Z,22.94
2022-08-22T21:29:07.399Z,22.93
2022-08-22T21:31:46.194Z,22.83
2022-08-22T21:34:20.872Z,22.80
2022-08-22T21:36:54.849Z,22.71
2022-08-22T21:39:30.450Z,22.65
2022-08-22T21:42:22.601Z,22.68
2022-08-22T21:45:01.221Z,22.78
2022-08-22T21:47:36.037Z,22.94
2022-08-22T21:50:15.992Z,22.93
2022-08-22T21:53:04.691Z,22.68
2022-08-22T21:55:44.721Z,22.69
2022-08-22T21:58:36.649Z,22.79
2022-08-22T22:01:30.983Z,22.71
2022-08-22T22:04:03.258Z,22.68
2022-08-22T22:06:34.831Z,22.66
2022-08-22T22:09:06.828Z,22.69
2022-08-22T22:11:38.256Z,22.76
2022-08-22T22:14:09.820Z,22.72
2022-08-22T22:16:41.291Z,22.79
2022-08-22T22:19:12.780Z,22.87
2022-08-22T22:21:44.861Z,22.84
2022-08-22T22:24:16.281Z,22.65
2022-08-22T22:26:47.731Z,22.55
2022-08-22T22:29:19.231Z,22.46
2022-08-22T22:31:50.519Z,22.44
2022-08-22T22:34:23.421Z,22.50
2022-08-22T22:36:55.143Z,22.31
2022-08-22T22:39:27.207Z,22.16
2022-08-22T22:41:58.811Z,22.10
2022-08-22T22:44:30.223Z,22.09
2022-08-22T22:47:03.940Z,22.10
2022-08-22T22:49:35.880Z,22.08
2022-08-22T22:52:11.674Z,22.09
2022-08-22T22:54:44.235Z,22.04
2022-08-22T22:57:19.876Z,21.95
2022-08-22T22:59:57.331Z,22.09
2022-08-22T23:02:28.767Z,22.05
2022-08-22T23:05:00.705Z,22.19
2022-08-22T23:07:33.823Z,22.09
2022-08-22T23:10:07.385Z,22.12
2022-08-22T23:12:39.787Z,22.07
2022-08-22T23:15:12.505Z,22.02
2022-08-22T23:17:44.099Z,22.01
2022-08-22T23:20:16.405Z,21.88
2022-08-22T23:22:49.518Z,21.88
2022-08-22T23:25:21.955Z,22.06
2022-08-22T23:27:53.446Z,22.03
2022-08-22T23:30:25.198Z,21.98
2022-08-22T23:32:57.064Z,21.94
2022-08-22T23:35:30.737Z,21.82
2022-08-22T23:38:02.228Z,21.88
2022-08-22T23:40:33.651Z,21.85
2022-08-22T23:43:05.199Z,21.89
2022-08-22T23:45:36.494Z,21.66
2022-08-22T23:48:09.004Z,21.56
2022-08-22T23:50:40.382Z,21.58
2022-08-22T23:53:13.450Z,21.68
2022-08-22T23:55:44.762Z,21.66
2022-08-22T23:58:16.436Z,21.51
